createdAt,value
2023-01-18T00:02:56.179Z,32.70
2023-01-18T00:13:00.425Z,30.80
2023-01-18T00:23:05.585Z,28.40
2023-01-18T00:33:09.863Z,28.70
2023-01-18T00:43:32.134Z,33.80
2023-01-18T00:53:38.385Z,35.20
2023-01-18T01:04:00.822Z,36.00
2023-01-18T01:14:23.249Z,32.50
2023-01-18T01:24:46.633Z,31.70
2023-01-18T01:34:50.287Z,33.40
2023-01-18T01:44:55.281Z,32.60
2023-01-18T01:55:21.151Z,33.10
2023-01-18T02:05:31.403Z,33.70
2023-01-18T02:15:55.595Z,27.90
2023-01-18T02:26:30.615Z,26.90
2023-01-18T02:36:54.727Z,27.90
2023-01-18T02:46:58.780Z,27.00
2023-01-18T02:57:09.727Z,31.30
2023-01-18T03:07:21.698Z,31.00
2023-01-18T03:17:37.585Z,29.30
2023-01-18T03:28:06.927Z,29.90
2023-01-18T03:39:31.741Z,29.80
2023-01-18T03:49:36.266Z,28.90
2023-01-18T03:59:40.643Z,29.70
2023-01-18T04:09:44.528Z,28.60
2023-01-18T04:19:48.689Z,28.40
2023-01-18T04:29:52.978Z,28.20
2023-01-18T04:39:57.484Z,26.90
2023-01-18T04:50:01.374Z,26.20
2023-01-18T05:00:08.453Z,25.70
2023-01-18T05:10:16.290Z,25.50
2023-01-18T05:20:20.616Z,27.50
2023-01-18T05:30:24.520Z,26.90
2023-01-18T05:40:29.300Z,25.90
2023-01-18T05:50:33.508Z,25.90
2023-01-18T06:00:50.420Z,25.70
2023-01-18T06:10:56.679Z,26.60
2023-01-18T06:21:02.549Z,25.80
2023-01-18T06:31:08.641Z,25.20
2023-01-18T06:41:12.363Z,25.40
2023-01-18T06:51:16.238Z,28.20
2023-01-18T07:01:20.181Z,29.80
2023-01-18T07:11:24.724Z,26.50
2023-01-18T07:21:30.058Z,25.00
2023-01-18T07:31:34.668Z,24.40
2023-01-18T07:41:42.356Z,24.40
2023-01-18T07:51:46.265Z,20.60
2023-01-18T08:01:50.284Z,20.00
2023-01-18T08:11:54.276Z,26.30
2023-01-18T08:21:58.286Z,27.10
2023-01-18T08:32:03.131Z,26.20
2023-01-18T08:42:07.157Z,19.30
2023-01-18T08:52:11.350Z,20.60
2023-01-18T09:02:17.003Z,21.70
2023-01-18T09:12:21.229Z,20.10
2023-01-18T09:22:25.802Z,28.60
2023-01-18T09:32:30.966Z,21.10
2023-01-18T09:42:41.238Z,21.70
2023-01-18T09:53:07.612Z,25.50
2023-01-18T10:03:20.173Z,23.80
2023-01-18T10:13:31.588Z,22.70
2023-01-18T10:23:44.696Z,20.50
2023-01-18T10:33:55.786Z,20.90
2023-01-18T10:44:02.199Z,20.70
2023-01-18T10:54:32.497Z,21.80
2023-01-18T11:04:36.448Z,19.70
2023-01-18T11:14:41.577Z,23.50
2023-01-18T11:24:45.965Z,20.80
2023-01-18T11:34:55.805Z,20.70
2023-01-18T11:45:29.158Z,21.30
2023-01-18T11:55:41.039Z,18.70
2023-01-18T12:06:04.856Z,19.90
2023-01-18T12:16:15.666Z,17.30
2023-01-18T12:26:27.049Z,17.50
2023-01-18T12:36:54.581Z,14.30
2023-01-18T12:47:00.391Z,17.10
2023-01-18T12:57:04.886Z,13.30
2023-01-18T13:07:16.845Z,13.20
2023-01-18T13:17:38.087Z,11.90
2023-01-18T13:28:14.831Z,10.40
2023-01-18T13:38:36.229Z,9.00
2023-01-18T13:48:50.852Z,10.40
2023-01-18T13:58:59.255Z,9.40
2023-01-18T14:09:14.861Z,10.50
2023-01-18T14:19:22.440Z,9.90
2023-01-18T14:29:41.345Z,9.90
2023-01-18T14:39:45.445Z,8.20
2023-01-18T14:49:50.026Z,6.70
2023-01-18T15:00:15.405Z,5.50
2023-01-18T15:10:20.356Z,4.40
2023-01-18T15:20:24.628Z,3.90
2023-01-18T15:30:32.239Z,4.20
2023-01-18T15:40:37.059Z,3.30
2023-01-18T15:50:49.635Z,3.00
2023-01-18T16:01:06.021Z,2.70
2023-01-18T16:11:34.095Z,2.40
2023-01-18T16:21:59.945Z,2.50
2023-01-18T16:32:49.595Z,3.20
2023-01-18T16:43:32.921Z,2.10
2023-01-18T16:53:47.970Z,1.60
2023-01-18T17:04:00.044Z,1.60
2023-01-18T17:14:04.262Z,1.70
2023-01-18T17:24:10.564Z,1.50
2023-01-18T17:34:17.859Z,1.70
2023-01-18T17:44:26.932Z,1.70
2023-01-18T17:54:37.691Z,1.10
2023-01-18T18:04:42.110Z,1.10
2023-01-18T18:14:46.324Z,0.80
2023-01-18T18:24:51.712Z,0.80
2023-01-18T18:34:57.101Z,0.90
2023-01-18T18:45:02.732Z,0.90
2023-01-18T18:55:08.667Z,1.10
2023-01-18T19:05:16.353Z,2.70
2023-01-18T19:15:24.278Z,1.80
2023-01-18T19:25:28.551Z,2.20
2023-01-18T19:35:41.740Z,3.10
2023-01-18T19:45:46.911Z,3.80
2023-01-18T19:56:06.510Z,4.40
2023-01-18T20:06:16.312Z,5.10
2023-01-18T20:16:20.889Z,5.80
2023-01-18T20:26:35.847Z,6.60
2023-01-18T20:36:41.445Z,8.10
2023-01-18T20:46:47.452Z,8.10
2023-01-18T20:56:51.992Z,8.40
2023-01-18T21:06:57.911Z,9.00
2023-01-18T21:17:03.282Z,9.50
2023-01-18T21:27:07.635Z,10.00
2023-01-18T21:37:13.439Z,10.20
2023-01-18T21:47:17.816Z,11.00
2023-01-18T21:57:22.007Z,11.80
2023-01-18T22:07:28.589Z,12.50
2023-01-18T22:17:33.515Z,12.20
2023-01-18T22:27:39.596Z,12.60
2023-01-18T22:37:43.764Z,13.20
2023-01-18T22:47:48.243Z,15.10
2023-01-18T22:57:52.201Z,16.40
2023-01-18T23:07:57.088Z,15.90
2023-01-18T23:18:02.264Z,16.60
2023-01-18T23:28:06.355Z,16.60
2023-01-18T23:38:10.503Z,17.10
2023-01-18T23:48:38.151Z,17.70
2023-01-18T23:58:42.072Z,17.40
